createdAt,value
2022-08-24T00:00:46.071Z,99.90
2022-08-24T00:03:14.797Z,99.90
2022-08-24T00:05:43.460Z,99.90
2022-08-24T00:08:13.566Z,99.90
2022-08-24T00:10:42.354Z,99.90
2022-08-24T00:13:10.875Z,99.90
2022-08-24T00:15:39.520Z,99.90
2022-08-24T00:18:08.504Z,99.90
2022-08-24T00:20:39.195Z,99.90
2022-08-24T00:23:09.480Z,99.90
2022-08-24T00:25:39.541Z,99.90
2022-08-24T00:28:08.308Z,99.90
2022-08-24T00:30:37.210Z,99.90
2022-08-24T00:33:05.692Z,99.90
2022-08-24T00:35:34.151Z,99.90
2022-08-24T00:38:03.162Z,99.90
2022-08-24T00:40:35.226Z,99.90
2022-08-24T00:43:08.818Z,99.90
2022-08-24T00:45:43.551Z,99.90
2022-08-24T00:48:16.849Z,99.90
2022-08-24T00:50:49.949Z,99.90
2022-08-24T00:53:24.812Z,99.90
2022-08-24T00:55:58.208Z,99.90
2022-08-24T00:58:35.374Z,99.90
2022-08-24T01:01:06.787Z,99.90
2022-08-24T01:03:37.487Z,99.90
2022-08-24T01:06:06.740Z,99.90
2022-08-24T01:08:36.036Z,99.90
2022-08-24T01:11:08.559Z,99.90
2022-08-24T01:13:46.081Z,99.90
2022-08-24T01:16:36.798Z,99.90
2022-08-24T01:19:12.179Z,99.90
2022-08-24T01:21:48.277Z,99.90
2022-08-24T01:24:18.068Z,99.90
2022-08-24T01:26:49.667Z,99.90
2022-08-24T01:29:23.676Z,99.90
2022-08-24T01:31:53.909Z,99.90
2022-08-24T01:34:22.556Z,99.90
2022-08-24T01:36:56.224Z,99.90
2022-08-24T01:39:28.648Z,99.90
2022-08-24T01:41:57.618Z,99.90
2022-08-24T01:44:29.537Z,99.90
2022-08-24T01:46:58.749Z,99.90
2022-08-24T01:49:31.031Z,99.90
2022-08-24T01:52:01.007Z,99.90
2022-08-24T01:54:31.641Z,99.90
2022-08-24T01:57:01.837Z,99.90
2022-08-24T01:59:34.933Z,99.90
2022-08-24T02:02:13.265Z,99.90
2022-08-24T02:04:42.336Z,99.90
2022-08-24T02:07:14.296Z,99.90
2022-08-24T02:09:47.336Z,99.90
2022-08-24T02:12:17.637Z,99.90
2022-08-24T02:14:47.715Z,99.90
2022-08-24T02:17:16.445Z,99.90
2022-08-24T02:19:45.089Z,99.90
2022-08-24T02:22:13.762Z,99.90
2022-08-24T02:24:44.220Z,99.90
2022-08-24T02:27:17.188Z,99.90
2022-08-24T02:29:46.505Z,99.90
2022-08-24T02:32:16.103Z,99.90
2022-08-24T02:34:44.785Z,99.90
2022-08-24T02:37:14.696Z,99.90
2022-08-24T02:39:44.909Z,99.90
2022-08-24T02:42:17.332Z,99.90
2022-08-24T02:44:46.539Z,99.90
2022-08-24T02:47:18.300Z,99.90
2022-08-24T02:49:47.187Z,99.90
2022-08-24T02:52:16.202Z,99.90
2022-08-24T02:54:46.472Z,99.90
2022-08-24T02:57:15.545Z,99.90
2022-08-24T02:59:44.809Z,99.90
2022-08-24T03:02:13.421Z,99.90
2022-08-24T03:04:42.860Z,99.90
2022-08-24T03:07:18.194Z,99.90
2022-08-24T03:09:48.750Z,99.90
2022-08-24T03:12:18.437Z,99.90
2022-08-24T03:14:47.117Z,99.90
2022-08-24T03:17:17.763Z,99.90
2022-08-24T03:19:46.753Z,99.90
2022-08-24T03:22:15.424Z,99.90
2022-08-24T03:24:44.525Z,99.90
2022-08-24T03:27:17.022Z,99.90
2022-08-24T03:29:45.576Z,99.90
2022-08-24T03:32:14.163Z,99.90
2022-08-24T03:34:43.281Z,99.90
2022-08-24T03:37:11.997Z,99.90
2022-08-24T03:39:40.940Z,99.90
2022-08-24T03:42:09.832Z,99.90
2022-08-24T03:44:41.388Z,99.90
2022-08-24T03:47:10.867Z,99.90
2022-08-24T03:49:41.313Z,99.90
2022-08-24T03:52:11.180Z,99.90
2022-08-24T03:54:39.875Z,99.90
2022-08-24T03:57:09.595Z,99.90
2022-08-24T03:59:41.206Z,99.90
2022-08-24T04:02:15.414Z,99.90
2022-08-24T04:04:44.317Z,99.90
2022-08-24T04:07:12.974Z,99.90
2022-08-24T04:09:44.142Z,99.90
2022-08-24T04:12:13.479Z,99.90
2022-08-24T04:14:44.489Z,99.90
2022-08-24T04:17:16.935Z,99.90
2022-08-24T04:19:58.553Z,99.90
2022-08-24T04:22:34.134Z,99.90
2022-08-24T04:25:08.826Z,99.90
2022-08-24T04:27:38.829Z,99.90
2022-08-24T04:30:14.215Z,99.90
2022-08-24T04:33:03.685Z,99.90
2022-08-24T04:35:33.651Z,99.90
2022-08-24T04:38:02.448Z,99.90
2022-08-24T04:40:43.523Z,99.90
2022-08-24T04:43:19.867Z,99.90
2022-08-24T04:45:51.656Z,99.90
2022-08-24T04:48:22.152Z,99.90
2022-08-24T04:50:51.182Z,99.90
2022-08-24T04:53:20.744Z,99.90
2022-08-24T04:55:52.464Z,99.90
2022-08-24T04:58:26.443Z,99.90
2022-08-24T05:00:57.038Z,99.90
2022-08-24T05:03:26.891Z,99.90
2022-08-24T05:05:55.914Z,99.90
2022-08-24T05:08:24.885Z,99.90
2022-08-24T05:10:54.045Z,99.90
2022-08-24T05:13:23.479Z,99.90
2022-08-24T05:15:52.675Z,99.90
2022-08-24T05:18:30.723Z,99.90
2022-08-24T05:21:09.985Z,99.90
2022-08-24T05:23:42.813Z,99.90
2022-08-24T05:26:24.687Z,99.90
2022-08-24T05:28:56.648Z,99.90
2022-08-24T05:31:40.255Z,99.90
2022-08-24T05:34:14.888Z,99.90
2022-08-24T05:36:46.089Z,99.90
2022-08-24T05:39:42.346Z,99.90
2022-08-24T05:42:21.201Z,99.90
2022-08-24T05:44:51.622Z,99.90
2022-08-24T05:47:24.058Z,99.90
2022-08-24T05:49:57.929Z,99.90
2022-08-24T05:52:35.520Z,99.90
2022-08-24T05:55:10.955Z,99.90
2022-08-24T05:57:40.371Z,99.90
2022-08-24T06:00:23.463Z,99.90
2022-08-24T06:02:56.851Z,99.90
2022-08-24T06:05:27.390Z,99.90
2022-08-24T06:07:59.681Z,99.90
2022-08-24T06:10:37.229Z,99.90
2022-08-24T06:13:16.377Z,99.90
2022-08-24T06:16:04.840Z,99.90
2022-08-24T06:18:41.932Z,99.90
2022-08-24T06:21:18.399Z,99.90
2022-08-24T06:23:57.359Z,99.90
2022-08-24T06:26:50.178Z,99.90
2022-08-24T06:29:25.285Z,99.90
2022-08-24T06:32:03.882Z,99.90
2022-08-24T06:34:34.077Z,99.90
2022-08-24T06:37:12.810Z,99.90
2022-08-24T06:39:54.955Z,99.90
2022-08-24T06:45:28.413Z,99.90
2022-08-24T06:48:05.741Z,99.60
2022-08-24T06:50:49.131Z,99.30
2022-08-24T06:53:32.515Z,98.70
2022-08-24T06:56:14.154Z,97.80
2022-08-24T06:58:55.080Z,97.00
2022-08-24T07:01:37.190Z,96.00
2022-08-24T07:04:17.171Z,95.00
2022-08-24T07:07:19.468Z,93.80
2022-08-24T07:09:52.381Z,91.50
2022-08-24T07:12:28.146Z,90.80
2022-08-24T07:15:16.261Z,90.30
2022-08-24T07:17:51.470Z,89.70
2022-08-24T07:20:26.729Z,89.20
2022-08-24T07:23:34.616Z,88.60
2022-08-24T07:26:21.271Z,88.10
2022-08-24T07:29:01.569Z,87.10
2022-08-24T07:31:43.759Z,86.60
2022-08-24T07:34:38.625Z,86.00
2022-08-24T07:37:18.160Z,83.10
2022-08-24T07:40:23.563Z,82.20
2022-08-24T07:43:12.828Z,81.80
2022-08-24T07:46:02.550Z,80.50
2022-08-24T07:48:46.269Z,79.80
2022-08-24T07:51:42.222Z,79.50
2022-08-24T07:57:31.454Z,78.30
2022-08-24T08:00:21.975Z,77.90
2022-08-24T08:03:10.766Z,76.50
2022-08-24T08:05:45.200Z,76.30
2022-08-24T08:08:25.290Z,76.60
2022-08-24T08:11:14.076Z,76.60
2022-08-24T08:13:52.205Z,75.60
2022-08-24T08:16:26.554Z,75.10
2022-08-24T08:19:14.331Z,74.60
2022-08-24T08:22:07.633Z,73.80
2022-08-24T08:24:57.080Z,73.30
2022-08-24T08:27:35.223Z,72.40
2022-08-24T08:30:06.523Z,71.90
2022-08-24T08:32:41.465Z,72.60
2022-08-24T08:35:34.822Z,71.80
2022-08-24T08:38:04.031Z,71.20
2022-08-24T08:41:03.214Z,71.00
2022-08-24T08:43:46.551Z,71.00
2022-08-24T08:46:40.681Z,70.60
2022-08-24T08:49:58.647Z,69.80
2022-08-24T08:52:55.417Z,70.10
2022-08-24T08:55:35.779Z,70.80
2022-08-24T08:58:31.269Z,69.60
2022-08-24T09:01:06.684Z,69.60
2022-08-24T09:03:54.304Z,69.60
2022-08-24T09:06:54.796Z,69.00
2022-08-24T09:09:56.340Z,69.50
2022-08-24T09:12:38.065Z,68.90
2022-08-24T09:15:29.131Z,68.80
2022-08-24T09:18:19.540Z,67.90
2022-08-24T09:21:17.570Z,67.80
2022-08-24T09:24:07.988Z,67.60
2022-08-24T09:26:49.612Z,67.60
2022-08-24T09:29:24.729Z,67.70
2022-08-24T09:32:22.139Z,67.60
2022-08-24T09:34:59.813Z,66.80
2022-08-24T09:37:41.624Z,66.70
2022-08-24T09:40:35.949Z,66.80
2022-08-24T09:43:38.489Z,66.70
2022-08-24T09:46:38.681Z,66.50
2022-08-24T09:49:41.335Z,65.50
2022-08-24T09:52:43.192Z,64.50
2022-08-24T09:55:47.749Z,63.30
2022-08-24T09:58:25.755Z,62.80
2022-08-24T10:01:03.416Z,61.20
2022-08-24T10:03:50.184Z,58.70
2022-08-24T10:06:29.994Z,58.70
2022-08-24T10:09:15.453Z,59.10
2022-08-24T10:11:59.260Z,58.90
2022-08-24T10:14:46.573Z,58.60
2022-08-24T10:17:23.555Z,58.20
2022-08-24T10:20:07.703Z,58.90
2022-08-24T10:23:03.266Z,58.30
2022-08-24T10:25:38.744Z,57.60
2022-08-24T10:28:35.410Z,57.20
2022-08-24T10:31:09.696Z,56.40
2022-08-24T10:33:52.126Z,55.40
2022-08-24T10:36:46.355Z,55.30
2022-08-24T10:39:45.735Z,55.70
2022-08-24T10:43:02.934Z,55.50
2022-08-24T10:46:15.184Z,54.10
2022-08-24T10:49:19.504Z,52.90
2022-08-24T10:52:03.056Z,52.80
2022-08-24T10:54:34.956Z,52.80
2022-08-24T10:57:12.278Z,53.70
2022-08-24T10:59:53.416Z,54.10
2022-08-24T11:02:34.266Z,53.70
2022-08-24T11:05:05.886Z,52.90
2022-08-24T11:07:34.768Z,51.10
2022-08-24T11:10:06.724Z,50.40
2022-08-24T11:12:40.092Z,50.10
2022-08-24T11:15:21.002Z,49.90
2022-08-24T11:17:58.628Z,49.70
2022-08-24T11:20:33.491Z,51.00
2022-08-24T11:23:05.413Z,50.20
2022-08-24T11:25:38.096Z,49.40
2022-08-24T11:28:26.212Z,49.30
2022-08-24T11:30:54.791Z,50.20
2022-08-24T11:33:32.743Z,49.70
2022-08-24T11:36:02.905Z,49.40
2022-08-24T11:38:36.166Z,50.90
2022-08-24T11:41:12.990Z,51.00
2022-08-24T11:43:59.540Z,51.00
2022-08-24T11:46:34.414Z,49.70
2022-08-24T11:49:12.501Z,48.70
2022-08-24T11:51:47.963Z,48.00
2022-08-24T11:54:26.076Z,48.60
2022-08-24T11:57:09.336Z,47.90
2022-08-24T11:59:52.128Z,47.40
2022-08-24T12:02:28.999Z,47.10
2022-08-24T12:05:07.695Z,46.80
2022-08-24T12:07:51.809Z,46.90
2022-08-24T12:10:32.789Z,46.70
2022-08-24T12:13:07.972Z,46.80
2022-08-24T12:15:51.849Z,47.50
2022-08-24T12:18:31.420Z,47.40
2022-08-24T12:21:02.161Z,45.90
2022-08-24T12:23:38.810Z,47.10
2022-08-24T12:26:13.846Z,46.80
2022-08-24T12:28:49.221Z,46.30
2022-08-24T12:31:25.279Z,46.90
2022-08-24T12:33:58.678Z,46.80
2022-08-24T12:36:37.761Z,47.50
2022-08-24T12:39:12.152Z,48.00
2022-08-24T12:42:00.154Z,49.40
2022-08-24T12:44:37.048Z,50.40
2022-08-24T12:47:05.874Z,50.90
2022-08-24T12:49:44.374Z,52.80
2022-08-24T12:52:33.111Z,53.20
2022-08-24T12:55:21.409Z,50.80
2022-08-24T12:58:02.227Z,48.00
2022-08-24T13:00:37.678Z,47.90
2022-08-24T13:03:09.156Z,48.80
2022-08-24T13:05:45.340Z,48.50
2022-08-24T13:08:23.807Z,47.80
2022-08-24T13:11:01.490Z,47.10
2022-08-24T13:13:49.456Z,46.80
2022-08-24T13:16:47.800Z,46.90
2022-08-24T13:19:32.865Z,45.70
2022-08-24T13:22:22.276Z,43.80
2022-08-24T13:25:26.335Z,42.50
2022-08-24T13:28:31.996Z,41.70
2022-08-24T13:31:14.308Z,41.60
2022-08-24T13:33:46.587Z,41.60
2022-08-24T13:36:43.167Z,40.30
2022-08-24T13:39:27.491Z,40.50
2022-08-24T13:42:12.627Z,41.20
2022-08-24T13:45:05.546Z,41.60
2022-08-24T13:47:59.882Z,41.00
2022-08-24T13:50:34.605Z,41.10
2022-08-24T13:53:34.675Z,41.60
2022-08-24T13:56:38.291Z,42.00
2022-08-24T13:59:18.346Z,42.80
2022-08-24T14:02:05.820Z,43.90
2022-08-24T14:04:44.090Z,45.10
2022-08-24T14:07:21.114Z,45.20
2022-08-24T14:10:09.194Z,45.10
2022-08-24T14:12:52.991Z,45.70
2022-08-24T14:15:30.043Z,46.10
2022-08-24T14:18:15.156Z,45.80
2022-08-24T14:21:18.476Z,46.20
2022-08-24T14:24:01.608Z,46.90
2022-08-24T14:27:06.624Z,47.10
2022-08-24T14:29:44.080Z,48.30
2022-08-24T14:32:36.274Z,48.40
2022-08-24T14:35:36.422Z,47.80
2022-08-24T14:38:41.799Z,45.80
2022-08-24T14:41:23.330Z,44.60
2022-08-24T14:44:33.076Z,43.40
2022-08-24T14:47:08.857Z,40.90
2022-08-24T14:49:54.293Z,39.40
2022-08-24T14:52:45.488Z,38.80
2022-08-24T14:55:21.388Z,38.70
2022-08-24T14:58:06.086Z,39.40
2022-08-24T15:00:53.168Z,42.40
2022-08-24T15:03:38.007Z,42.20
2022-08-24T15:06:27.340Z,41.10
2022-08-24T15:09:08.362Z,41.30
2022-08-24T15:11:40.824Z,41.10
2022-08-24T15:14:19.812Z,42.10
2022-08-24T15:16:55.473Z,42.80
2022-08-24T15:19:34.355Z,41.90
2022-08-24T15:22:07.870Z,42.20
2022-08-24T15:24:44.306Z,41.80
2022-08-24T15:27:25.608Z,42.00
2022-08-24T15:29:57.126Z,42.20
2022-08-24T15:32:28.066Z,42.10
2022-08-24T15:34:59.569Z,40.70
2022-08-24T15:37:31.800Z,39.90
2022-08-24T15:40:03.375Z,40.10
2022-08-24T15:42:36.151Z,39.90
2022-08-24T15:45:07.588Z,40.50
2022-08-24T15:47:38.595Z,41.40
2022-08-24T15:50:10.466Z,41.20
2022-08-24T15:52:49.804Z,41.10
2022-08-24T15:55:35.634Z,42.00
2022-08-24T15:58:32.313Z,41.80
2022-08-24T16:01:59.737Z,41.30
2022-08-24T16:05:15.093Z,41.10
2022-08-24T16:08:15.409Z,40.70
2022-08-24T16:10:54.410Z,40.80
2022-08-24T16:13:36.126Z,40.40
2022-08-24T16:16:17.760Z,40.30
2022-08-24T16:18:53.938Z,39.90
2022-08-24T16:21:34.698Z,41.40
2022-08-24T16:24:13.088Z,42.50
2022-08-24T16:27:01.304Z,42.80
2022-08-24T16:29:53.476Z,44.10
2022-08-24T16:32:37.054Z,45.00
2022-08-24T16:35:51.380Z,45.80
2022-08-24T16:39:37.820Z,46.70
2022-08-24T16:42:14.359Z,47.00
2022-08-24T16:44:45.313Z,45.80
2022-08-24T16:47:14.528Z,45.40
2022-08-24T16:49:44.090Z,44.40
2022-08-24T16:52:12.885Z,44.30
2022-08-24T16:54:42.641Z,44.10
2022-08-24T16:57:18.552Z,44.10
2022-08-24T16:59:50.265Z,44.10
2022-08-24T17:02:27.659Z,43.50
2022-08-24T17:04:58.865Z,43.80
2022-08-24T17:07:30.937Z,43.70
2022-08-24T17:10:02.615Z,43.70
2022-08-24T17:12:33.080Z,44.40
2022-08-24T17:15:11.983Z,44.60
2022-08-24T17:17:55.171Z,46.00
2022-08-24T17:20:24.639Z,47.40
2022-08-24T17:22:53.624Z,49.10
2022-08-24T17:25:22.833Z,50.00
2022-08-24T17:27:54.840Z,51.40
2022-08-24T17:30:27.343Z,52.40
2022-08-24T17:33:00.468Z,52.20
2022-08-24T17:35:30.008Z,53.80
2022-08-24T17:38:02.907Z,54.30
2022-08-24T17:40:33.958Z,54.90
2022-08-24T17:43:41.863Z,55.50
2022-08-24T17:49:49.226Z,55.80
2022-08-24T17:52:21.780Z,56.10
2022-08-24T17:55:17.554Z,56.70
2022-08-24T17:57:54.915Z,57.10
2022-08-24T18:00:25.725Z,57.80
2022-08-24T18:02:54.964Z,58.40
2022-08-24T18:05:24.335Z,58.80
2022-08-24T18:07:56.499Z,58.80
2022-08-24T18:10:28.783Z,59.60
2022-08-24T18:12:59.044Z,59.50
2022-08-24T18:15:35.893Z,60.00
2022-08-24T18:18:16.547Z,60.70
2022-08-24T18:20:48.040Z,60.80
2022-08-24T18:23:21.321Z,61.30
2022-08-24T18:25:54.746Z,62.00
2022-08-24T18:28:24.796Z,62.20
2022-08-24T18:30:56.156Z,63.10
2022-08-24T18:33:25.342Z,63.30
2022-08-24T18:35:58.695Z,63.70
2022-08-24T18:38:28.877Z,64.10
2022-08-24T18:40:58.432Z,64.90
2022-08-24T18:43:29.453Z,65.00
2022-08-24T18:46:00.615Z,65.50
2022-08-24T18:48:33.852Z,66.60
2022-08-24T18:51:05.916Z,67.20
2022-08-24T18:53:35.801Z,67.80
2022-08-24T18:56:12.423Z,68.40
2022-08-24T18:58:42.132Z,68.80
2022-08-24T19:01:16.643Z,68.50
2022-08-24T19:03:46.986Z,68.60
2022-08-24T19:06:19.549Z,69.00
2022-08-24T19:08:52.812Z,69.40
2022-08-24T19:11:25.322Z,69.70
2022-08-24T19:13:55.492Z,70.10
2022-08-24T19:16:32.731Z,70.60
2022-08-24T19:19:05.821Z,70.80
2022-08-24T19:22:00.250Z,71.30
2022-08-24T19:24:32.673Z,71.70
2022-08-24T19:27:20.638Z,72.20
2022-08-24T19:29:56.132Z,72.40
2022-08-24T19:32:45.891Z,72.40
2022-08-24T19:35:16.118Z,72.30
2022-08-24T19:37:45.261Z,72.80
2022-08-24T19:40:14.403Z,73.00
2022-08-24T19:42:45.156Z,73.50
2022-08-24T19:45:42.037Z,73.50
2022-08-24T19:48:13.351Z,74.20
2022-08-24T19:50:42.425Z,74.30
2022-08-24T19:53:11.611Z,74.40
2022-08-24T19:55:40.668Z,74.90
2022-08-24T19:58:17.184Z,75.20
2022-08-24T20:00:50.741Z,75.40
2022-08-24T20:03:22.412Z,75.50
2022-08-24T20:05:51.554Z,75.40
2022-08-24T20:08:22.741Z,75.50
2022-08-24T20:10:53.388Z,75.90
2022-08-24T20:13:22.322Z,76.10
2022-08-24T20:15:51.030Z,76.10
2022-08-24T20:18:20.060Z,76.30
2022-08-24T20:20:54.858Z,76.70
2022-08-24T20:23:38.307Z,76.70
2022-08-24T20:26:09.462Z,76.60
2022-08-24T20:28:42.331Z,76.30
2022-08-24T20:31:11.238Z,76.30
2022-08-24T20:33:40.362Z,76.20
2022-08-24T20:36:15.037Z,76.20
2022-08-24T20:38:47.314Z,76.20
2022-08-24T20:41:17.932Z,76.20
2022-08-24T20:43:46.699Z,76.50
2022-08-24T20:46:15.546Z,76.70
2022-08-24T20:48:44.848Z,77.10
2022-08-24T20:51:14.228Z,77.20
2022-08-24T20:53:42.902Z,77.00
2022-08-24T20:56:18.207Z,77.20
2022-08-24T20:58:50.220Z,77.60
2022-08-24T21:01:18.962Z,77.80
2022-08-24T21:03:48.083Z,77.90
2022-08-24T21:06:20.106Z,77.70
2022-08-24T21:08:51.554Z,77.50
2022-08-24T21:11:21.773Z,77.30
2022-08-24T21:13:50.470Z,77.50
2022-08-24T21:16:19.196Z,77.30
2022-08-24T21:18:48.185Z,77.60
2022-08-24T21:21:16.912Z,78.10
2022-08-24T21:23:45.482Z,78.30
2022-08-24T21:26:17.234Z,78.50
2022-08-24T21:28:47.605Z,78.80
2022-08-24T21:31:16.410Z,78.90
2022-08-24T21:34:02.567Z,79.20
2022-08-24T21:36:32.065Z,79.40
2022-08-24T21:39:00.645Z,79.40
2022-08-24T21:41:29.667Z,79.60
2022-08-24T21:44:00.414Z,79.70
2022-08-24T21:46:32.737Z,80.00
2022-08-24T21:49:01.628Z,80.00
2022-08-24T21:51:30.666Z,80.10
2022-08-24T21:53:59.607Z,80.60
2022-08-24T21:56:31.995Z,80.60
2022-08-24T21:59:03.087Z,80.90
2022-08-24T22:01:38.825Z,81.10
2022-08-24T22:04:08.221Z,81.20
2022-08-24T22:06:37.365Z,81.20
2022-08-24T22:09:07.082Z,81.60
2022-08-24T22:11:43.201Z,81.60
2022-08-24T22:14:15.435Z,82.10
2022-08-24T22:16:44.164Z,82.30
2022-08-24T22:19:16.950Z,82.00
2022-08-24T22:21:48.038Z,81.70
2022-08-24T22:24:17.708Z,81.60
2022-08-24T22:26:46.456Z,81.50
2022-08-24T22:29:16.675Z,81.90
2022-08-24T22:31:45.622Z,82.10
2022-08-24T22:34:19.682Z,81.90
2022-08-24T22:36:50.320Z,82.10
2022-08-24T22:39:19.008Z,82.80
2022-08-24T22:41:47.543Z,82.80
2022-08-24T22:44:21.281Z,82.70
2022-08-24T22:46:52.002Z,83.20
2022-08-24T22:49:22.815Z,82.40
2022-08-24T22:51:51.719Z,82.40
2022-08-24T22:54:21.019Z,82.20
2022-08-24T22:56:51.826Z,82.70
2022-08-24T22:59:25.012Z,82.10
2022-08-24T23:01:55.629Z,82.40
2022-08-24T23:04:26.978Z,82.20
2022-08-24T23:06:55.904Z,82.10
2022-08-24T23:09:24.641Z,81.50
2022-08-24T23:11:53.993Z,81.50
2022-08-24T23:14:25.225Z,80.40
2022-08-24T23:16:54.459Z,80.10
2022-08-24T23:19:43.807Z,80.30
2022-08-24T23:22:15.141Z,80.50
2022-08-24T23:24:45.197Z,81.00
2022-08-24T23:27:15.476Z,81.70
2022-08-24T23:29:47.012Z,81.80
2022-08-24T23:32:17.792Z,82.00
2022-08-24T23:34:47.711Z,82.40
2022-08-24T23:37:17.538Z,82.70
2022-08-24T23:39:46.380Z,83.20
2022-08-24T23:42:15.111Z,83.80
2022-08-24T23:44:45.423Z,83.80
2022-08-24T23:47:14.432Z,84.30
2022-08-24T23:49:43.190Z,83.90
2022-08-24T23:52:26.566Z,84.20
2022-08-24T23:55:07.061Z,84.10
2022-08-24T23:57:46.343Z,84.20
